sensor_id;sensor_type;location;lat;lon;timestamp;P1;durP1;ratioP1;P2;durP2;ratioP2
27822;SDS011;29019;47.630;8.262;2023-05-20T00:00:20;11.07;;;8.18;;
27822;SDS011;29019;47.630;8.262;2023-05-20T00:08:22;16.07;;;8.60;;
27822;SDS011;29019;47.630;8.262;2023-05-20T00:12:23;11.15;;;8.25;;
27822;SDS011;29019;47.630;8.262;2023-05-20T00:16:23;11.43;;;8.77;;
27822;SDS011;29019;47.630;8.262;2023-05-20T00:20:24;10.20;;;8.05;;
27822;SDS011;29019;47.630;8.262;2023-05-20T00:24:25;11.88;;;8.45;;
27822;SDS011;29019;47.630;8.262;2023-05-20T00:28:26;10.07;;;7.70;;
27822;SDS011;29019;47.630;8.262;2023-05-20T00:32:27;11.70;;;8.85;;
27822;SDS011;29019;47.630;8.262;2023-05-20T00:36:28;9.15;;;7.35;;
27822;SDS011;29019;47.630;8.262;2023-05-20T00:40:28;15.18;;;9.00;;
27822;SDS011;29019;47.630;8.262;2023-05-20T00:44:29;12.15;;;7.75;;
27822;SDS011;29019;47.630;8.262;2023-05-20T00:48:31;10.65;;;8.13;;
27822;SDS011;29019;47.630;8.262;2023-05-20T00:52:44;11.02;;;7.80;;
27822;SDS011;29019;47.630;8.262;2023-05-20T00:56:47;10.27;;;7.35;;
27822;SDS011;29019;47.630;8.262;2023-05-20T01:00:48;10.35;;;7.28;;
27822;SDS011;29019;47.630;8.262;2023-05-20T01:04:49;9.15;;;7.03;;
27822;SDS011;29019;47.630;8.262;2023-05-20T01:08:50;9.40;;;7.13;;
27822;SDS011;29019;47.630;8.262;2023-05-20T01:12:52;10.55;;;7.32;;
27822;SDS011;29019;47.630;8.262;2023-05-20T01:16:55;11.00;;;7.80;;
27822;SDS011;29019;47.630;8.262;2023-05-20T01:21:01;11.68;;;7.72;;
27822;SDS011;29019;47.630;8.262;2023-05-20T01:25:02;15.23;;;8.50;;
27822;SDS011;29019;47.630;8.262;2023-05-20T01:29:04;15.65;;;9.88;;
27822;SDS011;29019;47.630;8.262;2023-05-20T01:33:06;15.88;;;9.45;;
27822;SDS011;29019;47.630;8.262;2023-05-20T01:37:10;13.52;;;8.00;;
27822;SDS011;29019;47.630;8.262;2023-05-20T01:41:12;12.88;;;7.57;;
27822;SDS011;29019;47.630;8.262;2023-05-20T01:45:13;14.52;;;7.35;;
27822;SDS011;29019;47.630;8.262;2023-05-20T01:49:14;10.57;;;7.70;;
27822;SDS011;29019;47.630;8.262;2023-05-20T01:53:14;14.88;;;7.40;;
27822;SDS011;29019;47.630;8.262;2023-05-20T01:57:19;10.10;;;7.53;;
27822;SDS011;29019;47.630;8.262;2023-05-20T02:01:20;12.85;;;7.10;;
27822;SDS011;29019;47.630;8.262;2023-05-20T02:05:21;10.95;;;6.57;;
27822;SDS011;29019;47.630;8.262;2023-05-20T02:09:22;8.43;;;6.80;;
27822;SDS011;29019;47.630;8.262;2023-05-20T02:13:22;8.40;;;6.38;;
27822;SDS011;29019;47.630;8.262;2023-05-20T02:17:23;9.43;;;6.55;;
27822;SDS011;29019;47.630;8.262;2023-05-20T02:21:24;11.15;;;6.82;;
27822;SDS011;29019;47.630;8.262;2023-05-20T02:25:25;11.90;;;7.30;;
27822;SDS011;29019;47.630;8.262;2023-05-20T02:29:25;9.80;;;6.72;;
27822;SDS011;29019;47.630;8.262;2023-05-20T02:33:26;12.77;;;6.90;;
27822;SDS011;29019;47.630;8.262;2023-05-20T02:37:27;10.18;;;7.47;;
27822;SDS011;29019;47.630;8.262;2023-05-20T02:41:28;8.68;;;6.78;;
27822;SDS011;29019;47.630;8.262;2023-05-20T02:45:29;9.20;;;6.72;;
27822;SDS011;29019;47.630;8.262;2023-05-20T02:49:30;8.38;;;5.78;;
27822;SDS011;29019;47.630;8.262;2023-05-20T02:53:30;12.53;;;6.00;;
27822;SDS011;29019;47.630;8.262;2023-05-20T02:57:31;9.82;;;6.53;;
27822;SDS011;29019;47.630;8.262;2023-05-20T03:01:34;8.25;;;5.78;;
27822;SDS011;29019;47.630;8.262;2023-05-20T03:05:35;9.40;;;6.30;;
27822;SDS011;29019;47.630;8.262;2023-05-20T03:09:41;7.50;;;5.53;;
27822;SDS011;29019;47.630;8.262;2023-05-20T03:13:42;9.02;;;5.72;;
27822;SDS011;29019;47.630;8.262;2023-05-20T03:17:42;8.05;;;5.68;;
27822;SDS011;29019;47.630;8.262;2023-05-20T03:21:43;8.45;;;6.28;;
27822;SDS011;29019;47.630;8.262;2023-05-20T03:25:45;8.02;;;5.78;;
27822;SDS011;29019;47.630;8.262;2023-05-20T03:29:46;9.40;;;6.30;;
27822;SDS011;29019;47.630;8.262;2023-05-20T03:33:47;9.48;;;6.50;;
27822;SDS011;29019;47.630;8.262;2023-05-20T03:37:47;9.93;;;5.57;;
27822;SDS011;29019;47.630;8.262;2023-05-20T03:41:50;8.55;;;6.30;;
27822;SDS011;29019;47.630;8.262;2023-05-20T03:45:51;10.75;;;5.63;;
27822;SDS011;29019;47.630;8.262;2023-05-20T03:49:51;9.23;;;6.10;;
27822;SDS011;29019;47.630;8.262;2023-05-20T03:53:52;9.07;;;5.95;;
27822;SDS011;29019;47.630;8.262;2023-05-20T03:57:53;9.10;;;5.55;;
27822;SDS011;29019;47.630;8.262;2023-05-20T04:01:54;7.15;;;5.45;;
27822;SDS011;29019;47.630;8.262;2023-05-20T04:05:56;6.72;;;5.20;;
27822;SDS011;29019;47.630;8.262;2023-05-20T04:09:56;8.00;;;5.93;;
27822;SDS011;29019;47.630;8.262;2023-05-20T04:13:58;7.30;;;5.40;;
27822;SDS011;29019;47.630;8.262;2023-05-20T04:17:59;7.72;;;5.47;;
27822;SDS011;29019;47.630;8.262;2023-05-20T04:22:00;9.43;;;5.55;;
27822;SDS011;29019;47.630;8.262;2023-05-20T04:26:00;7.50;;;5.20;;
27822;SDS011;29019;47.630;8.262;2023-05-20T04:30:02;8.20;;;5.55;;
27822;SDS011;29019;47.630;8.262;2023-05-20T04:34:03;10.63;;;6.07;;
27822;SDS011;29019;47.630;8.262;2023-05-20T04:38:04;11.38;;;6.50;;
27822;SDS011;29019;47.630;8.262;2023-05-20T04:42:05;8.13;;;5.45;;
27822;SDS011;29019;47.630;8.262;2023-05-20T04:46:05;8.38;;;5.32;;
27822;SDS011;29019;47.630;8.262;2023-05-20T04:50:07;6.82;;;5.03;;
27822;SDS011;29019;47.630;8.262;2023-05-20T04:54:15;8.95;;;5.75;;
27822;SDS011;29019;47.630;8.262;2023-05-20T04:58:17;7.60;;;5.10;;
27822;SDS011;29019;47.630;8.262;2023-05-20T05:02:17;6.95;;;5.50;;
27822;SDS011;29019;47.630;8.262;2023-05-20T05:06:18;7.15;;;5.03;;
27822;SDS011;29019;47.630;8.262;2023-05-20T05:10:18;8.73;;;4.90;;
27822;SDS011;29019;47.630;8.262;2023-05-20T05:14:20;5.38;;;4.75;;
27822;SDS011;29019;47.630;8.262;2023-05-20T05:18:22;7.25;;;4.72;;
27822;SDS011;29019;47.630;8.262;2023-05-20T05:22:23;9.93;;;5.15;;
27822;SDS011;29019;47.630;8.262;2023-05-20T05:26:24;7.72;;;5.00;;
27822;SDS011;29019;47.630;8.262;2023-05-20T05:30:25;6.72;;;4.72;;
27822;SDS011;29019;47.630;8.262;2023-05-20T05:34:26;7.90;;;5.13;;
27822;SDS011;29019;47.630;8.262;2023-05-20T05:38:27;6.70;;;4.80;;
27822;SDS011;29019;47.630;8.262;2023-05-20T05:42:27;6.25;;;5.05;;
27822;SDS011;29019;47.630;8.262;2023-05-20T05:46:28;6.22;;;4.90;;
27822;SDS011;29019;47.630;8.262;2023-05-20T05:50:28;6.25;;;4.53;;
27822;SDS011;29019;47.630;8.262;2023-05-20T05:54:29;6.72;;;4.90;;
27822;SDS011;29019;47.630;8.262;2023-05-20T05:58:30;6.78;;;4.47;;
27822;SDS011;29019;47.630;8.262;2023-05-20T06:02:32;5.85;;;4.53;;
27822;SDS011;29019;47.630;8.262;2023-05-20T06:06:35;5.78;;;4.95;;
27822;SDS011;29019;47.630;8.262;2023-05-20T06:10:36;6.38;;;4.68;;
27822;SDS011;29019;47.630;8.262;2023-05-20T06:14:36;5.97;;;5.10;;
27822;SDS011;29019;47.630;8.262;2023-05-20T06:18:37;6.72;;;4.68;;
27822;SDS011;29019;47.630;8.262;2023-05-20T06:22:38;6.10;;;4.75;;
27822;SDS011;29019;47.630;8.262;2023-05-20T06:26:38;6.40;;;5.00;;
27822;SDS011;29019;47.630;8.262;2023-05-20T06:30:39;5.97;;;4.50;;
27822;SDS011;29019;47.630;8.262;2023-05-20T06:38:41;6.30;;;4.60;;
27822;SDS011;29019;47.630;8.262;2023-05-20T06:42:41;4.57;;;4.03;;
27822;SDS011;29019;47.630;8.262;2023-05-20T06:46:43;4.60;;;3.90;;
27822;SDS011;29019;47.630;8.262;2023-05-20T06:50:44;7.72;;;4.70;;
27822;SDS011;29019;47.630;8.262;2023-05-20T06:54:44;5.38;;;4.20;;
27822;SDS011;29019;47.630;8.262;2023-05-20T06:58:45;6.17;;;4.37;;
27822;SDS011;29019;47.630;8.262;2023-05-20T07:02:46;5.57;;;4.07;;
27822;SDS011;29019;47.630;8.262;2023-05-20T07:06:46;5.78;;;4.18;;
27822;SDS011;29019;47.630;8.262;2023-05-20T07:10:47;5.90;;;3.67;;
27822;SDS011;29019;47.630;8.262;2023-05-20T07:14:48;5.57;;;4.30;;
27822;SDS011;29019;47.630;8.262;2023-05-20T07:18:48;5.82;;;4.30;;
27822;SDS011;29019;47.630;8.262;2023-05-20T07:22:49;4.67;;;3.77;;
27822;SDS011;29019;47.630;8.262;2023-05-20T07:26:50;5.10;;;3.97;;
27822;SDS011;29019;47.630;8.262;2023-05-20T07:30:50;6.65;;;4.50;;
27822;SDS011;29019;47.630;8.262;2023-05-20T07:34:51;5.25;;;4.30;;
27822;SDS011;29019;47.630;8.262;2023-05-20T07:38:52;6.10;;;4.18;;
27822;SDS011;29019;47.630;8.262;2023-05-20T07:42:53;4.43;;;3.63;;
27822;SDS011;29019;47.630;8.262;2023-05-20T07:46:54;5.30;;;3.63;;
27822;SDS011;29019;47.630;8.262;2023-05-20T07:50:54;5.32;;;4.30;;
27822;SDS011;29019;47.630;8.262;2023-05-20T07:54:58;5.82;;;4.40;;
27822;SDS011;29019;47.630;8.262;2023-05-20T07:58:59;4.60;;;4.07;;
27822;SDS011;29019;47.630;8.262;2023-05-20T08:03:02;6.43;;;4.38;;
27822;SDS011;29019;47.630;8.262;2023-05-20T08:07:02;5.57;;;3.70;;
27822;SDS011;29019;47.630;8.262;2023-05-20T08:11:03;5.65;;;3.88;;
27822;SDS011;29019;47.630;8.262;2023-05-20T08:15:04;6.18;;;4.50;;
27822;SDS011;29019;47.630;8.262;2023-05-20T08:23:06;6.53;;;4.07;;
27822;SDS011;29019;47.630;8.262;2023-05-20T08:27:07;4.45;;;3.65;;
27822;SDS011;29019;47.630;8.262;2023-05-20T08:31:07;4.88;;;3.80;;
27822;SDS011;29019;47.630;8.262;2023-05-20T08:35:08;4.25;;;3.80;;
27822;SDS011;29019;47.630;8.262;2023-05-20T08:39:09;5.13;;;3.55;;
27822;SDS011;29019;47.630;8.262;2023-05-20T08:43:10;5.77;;;4.43;;
27822;SDS011;29019;47.630;8.262;2023-05-20T08:47:11;4.53;;;3.40;;
27822;SDS011;29019;47.630;8.262;2023-05-20T08:51:11;5.20;;;4.00;;
27822;SDS011;29019;47.630;8.262;2023-05-20T08:55:23;4.15;;;3.60;;
27822;SDS011;29019;47.630;8.262;2023-05-20T08:59:25;5.45;;;3.80;;
27822;SDS011;29019;47.630;8.262;2023-05-20T09:03:26;4.10;;;3.45;;
27822;SDS011;29019;47.630;8.262;2023-05-20T09:07:27;4.32;;;3.50;;
27822;SDS011;29019;47.630;8.262;2023-05-20T09:11:28;4.63;;;3.67;;
27822;SDS011;29019;47.630;8.262;2023-05-20T09:15:29;4.38;;;3.65;;
27822;SDS011;29019;47.630;8.262;2023-05-20T09:19:31;4.65;;;3.63;;
27822;SDS011;29019;47.630;8.262;2023-05-20T09:27:35;3.88;;;3.30;;
27822;SDS011;29019;47.630;8.262;2023-05-20T09:31:36;5.13;;;3.60;;
27822;SDS011;29019;47.630;8.262;2023-05-20T09:35:37;4.15;;;3.53;;
27822;SDS011;29019;47.630;8.262;2023-05-20T09:40:00;4.23;;;3.60;;
27822;SDS011;29019;47.630;8.262;2023-05-20T09:44:03;4.03;;;3.25;;
27822;SDS011;29019;47.630;8.262;2023-05-20T09:48:05;5.80;;;3.63;;
27822;SDS011;29019;47.630;8.262;2023-05-20T09:52:09;3.63;;;2.90;;
27822;SDS011;29019;47.630;8.262;2023-05-20T09:56:11;4.07;;;3.35;;
27822;SDS011;29019;47.630;8.262;2023-05-20T10:00:12;4.57;;;3.45;;
27822;SDS011;29019;47.630;8.262;2023-05-20T10:04:16;4.30;;;3.45;;
27822;SDS011;29019;47.630;8.262;2023-05-20T10:12:33;4.03;;;2.95;;
27822;SDS011;29019;47.630;8.262;2023-05-20T10:17:00;4.13;;;3.35;;
27822;SDS011;29019;47.630;8.262;2023-05-20T10:21:16;4.40;;;3.10;;
27822;SDS011;29019;47.630;8.262;2023-05-20T10:25:25;3.45;;;3.00;;
27822;SDS011;29019;47.630;8.262;2023-05-20T10:29:27;3.70;;;2.97;;
27822;SDS011;29019;47.630;8.262;2023-05-20T10:37:30;4.87;;;3.37;;
27822;SDS011;29019;47.630;8.262;2023-05-20T10:41:32;3.72;;;3.00;;
27822;SDS011;29019;47.630;8.262;2023-05-20T10:45:33;3.92;;;3.22;;
27822;SDS011;29019;47.630;8.262;2023-05-20T10:49:45;4.55;;;3.58;;
27822;SDS011;29019;47.630;8.262;2023-05-20T10:53:46;3.78;;;3.15;;
27822;SDS011;29019;47.630;8.262;2023-05-20T10:57:47;3.72;;;3.25;;
27822;SDS011;29019;47.630;8.262;2023-05-20T11:01:48;4.05;;;3.50;;
27822;SDS011;29019;47.630;8.262;2023-05-20T11:09:50;3.97;;;3.57;;
27822;SDS011;29019;47.630;8.262;2023-05-20T11:13:50;3.30;;;2.97;;
27822;SDS011;29019;47.630;8.262;2023-05-20T11:17:54;5.35;;;3.20;;
27822;SDS011;29019;47.630;8.262;2023-05-20T11:21:56;3.90;;;3.10;;
27822;SDS011;29019;47.630;8.262;2023-05-20T11:25:57;2.93;;;2.70;;
27822;SDS011;29019;47.630;8.262;2023-05-20T11:29:57;3.65;;;3.05;;
27822;SDS011;29019;47.630;8.262;2023-05-20T11:33:58;3.60;;;3.00;;
27822;SDS011;29019;47.630;8.262;2023-05-20T11:38:03;3.17;;;2.67;;
27822;SDS011;29019;47.630;8.262;2023-05-20T11:42:05;2.97;;;2.60;;
27822;SDS011;29019;47.630;8.262;2023-05-20T11:46:06;3.75;;;2.92;;
27822;SDS011;29019;47.630;8.262;2023-05-20T11:50:07;3.43;;;2.93;;
27822;SDS011;29019;47.630;8.262;2023-05-20T11:54:09;4.22;;;3.00;;
27822;SDS011;29019;47.630;8.262;2023-05-20T11:58:10;3.28;;;2.97;;
27822;SDS011;29019;47.630;8.262;2023-05-20T12:02:10;3.70;;;2.97;;
27822;SDS011;29019;47.630;8.262;2023-05-20T12:06:11;2.90;;;2.57;;
27822;SDS011;29019;47.630;8.262;2023-05-20T12:10:12;3.22;;;2.47;;
27822;SDS011;29019;47.630;8.262;2023-05-20T12:14:13;3.65;;;2.78;;
27822;SDS011;29019;47.630;8.262;2023-05-20T12:18:14;3.22;;;2.83;;
27822;SDS011;29019;47.630;8.262;2023-05-20T12:22:14;4.88;;;3.20;;
27822;SDS011;29019;47.630;8.262;2023-05-20T12:26:15;3.33;;;2.80;;
27822;SDS011;29019;47.630;8.262;2023-05-20T12:30:17;3.22;;;2.92;;
27822;SDS011;29019;47.630;8.262;2023-05-20T12:34:21;3.13;;;2.63;;
27822;SDS011;29019;47.630;8.262;2023-05-20T12:38:21;2.97;;;2.67;;
27822;SDS011;29019;47.630;8.262;2023-05-20T12:42:22;3.10;;;2.80;;
27822;SDS011;29019;47.630;8.262;2023-05-20T12:46:23;3.10;;;2.80;;
27822;SDS011;29019;47.630;8.262;2023-05-20T12:50:23;3.03;;;2.72;;
27822;SDS011;29019;47.630;8.262;2023-05-20T12:54:24;3.33;;;2.63;;
27822;SDS011;29019;47.630;8.262;2023-05-20T12:58:27;3.67;;;2.95;;
27822;SDS011;29019;47.630;8.262;2023-05-20T13:02:27;5.00;;;3.00;;
27822;SDS011;29019;47.630;8.262;2023-05-20T13:06:28;3.53;;;2.92;;
27822;SDS011;29019;47.630;8.262;2023-05-20T13:10:30;3.55;;;2.72;;
27822;SDS011;29019;47.630;8.262;2023-05-20T13:14:31;3.33;;;2.58;;
27822;SDS011;29019;47.630;8.262;2023-05-20T13:18:32;3.10;;;2.70;;
27822;SDS011;29019;47.630;8.262;2023-05-20T13:22:33;3.17;;;2.60;;
27822;SDS011;29019;47.630;8.262;2023-05-20T13:26:33;3.28;;;2.78;;
27822;SDS011;29019;47.630;8.262;2023-05-20T13:30:34;3.22;;;2.60;;
27822;SDS011;29019;47.630;8.262;2023-05-20T13:34:35;2.85;;;2.20;;
27822;SDS011;29019;47.630;8.262;2023-05-20T13:42:37;4.67;;;3.67;;
27822;SDS011;29019;47.630;8.262;2023-05-20T13:46:37;5.80;;;4.30;;
27822;SDS011;29019;47.630;8.262;2023-05-20T13:50:38;5.35;;;3.95;;
27822;SDS011;29019;47.630;8.262;2023-05-20T13:54:39;6.03;;;4.80;;
27822;SDS011;29019;47.630;8.262;2023-05-20T13:58:41;6.72;;;4.32;;
27822;SDS011;29019;47.630;8.262;2023-05-20T14:02:42;5.43;;;4.13;;
27822;SDS011;29019;47.630;8.262;2023-05-20T14:06:43;4.95;;;3.63;;
27822;SDS011;29019;47.630;8.262;2023-05-20T14:10:43;6.18;;;4.85;;
27822;SDS011;29019;47.630;8.262;2023-05-20T14:14:44;9.18;;;4.82;;
27822;SDS011;29019;47.630;8.262;2023-05-20T14:18:45;6.65;;;5.03;;
27822;SDS011;29019;47.630;8.262;2023-05-20T14:22:45;5.93;;;4.93;;
27822;SDS011;29019;47.630;8.262;2023-05-20T14:26:46;6.43;;;4.57;;
27822;SDS011;29019;47.630;8.262;2023-05-20T14:30:47;7.20;;;5.07;;
27822;SDS011;29019;47.630;8.262;2023-05-20T14:34:47;6.07;;;4.43;;
27822;SDS011;29019;47.630;8.262;2023-05-20T14:38:48;6.03;;;4.90;;
27822;SDS011;29019;47.630;8.262;2023-05-20T14:42:49;7.60;;;4.85;;
27822;SDS011;29019;47.630;8.262;2023-05-20T14:46:49;7.53;;;5.70;;
27822;SDS011;29019;47.630;8.262;2023-05-20T14:50:50;7.13;;;5.63;;
27822;SDS011;29019;47.630;8.262;2023-05-20T14:54:51;6.50;;;4.97;;
27822;SDS011;29019;47.630;8.262;2023-05-20T14:58:52;6.95;;;5.13;;
27822;SDS011;29019;47.630;8.262;2023-05-20T15:02:52;6.15;;;4.45;;
27822;SDS011;29019;47.630;8.262;2023-05-20T15:06:53;7.05;;;4.97;;
27822;SDS011;29019;47.630;8.262;2023-05-20T15:10:54;6.20;;;4.90;;
27822;SDS011;29019;47.630;8.262;2023-05-20T15:14:54;7.07;;;5.10;;
27822;SDS011;29019;47.630;8.262;2023-05-20T15:18:55;7.10;;;4.63;;
27822;SDS011;29019;47.630;8.262;2023-05-20T15:22:56;5.68;;;4.50;;
27822;SDS011;29019;47.630;8.262;2023-05-20T15:26:57;8.15;;;5.57;;
27822;SDS011;29019;47.630;8.262;2023-05-20T15:30:57;6.22;;;4.88;;
27822;SDS011;29019;47.630;8.262;2023-05-20T15:34:58;8.13;;;5.38;;
27822;SDS011;29019;47.630;8.262;2023-05-20T15:39:00;6.20;;;5.13;;
27822;SDS011;29019;47.630;8.262;2023-05-20T15:43:01;6.55;;;4.90;;
27822;SDS011;29019;47.630;8.262;2023-05-20T15:47:02;6.28;;;4.95;;
27822;SDS011;29019;47.630;8.262;2023-05-20T15:51:04;7.00;;;5.53;;
27822;SDS011;29019;47.630;8.262;2023-05-20T15:55:05;7.22;;;5.30;;
27822;SDS011;29019;47.630;8.262;2023-05-20T15:59:06;7.65;;;5.60;;
27822;SDS011;29019;47.630;8.262;2023-05-20T16:03:07;6.50;;;4.97;;
27822;SDS011;29019;47.630;8.262;2023-05-20T16:07:09;8.02;;;6.15;;
27822;SDS011;29019;47.630;8.262;2023-05-20T16:11:10;11.80;;;5.72;;
27822;SDS011;29019;47.630;8.262;2023-05-20T16:15:10;8.80;;;5.63;;
27822;SDS011;29019;47.630;8.262;2023-05-20T16:19:11;6.03;;;4.68;;
27822;SDS011;29019;47.630;8.262;2023-05-20T16:23:12;6.97;;;5.17;;
27822;SDS011;29019;47.630;8.262;2023-05-20T16:27:12;6.37;;;4.87;;
27822;SDS011;29019;47.630;8.262;2023-05-20T16:31:13;6.45;;;4.72;;
27822;SDS011;29019;47.630;8.262;2023-05-20T16:35:14;8.50;;;5.47;;
27822;SDS011;29019;47.630;8.262;2023-05-20T16:39:15;6.57;;;5.20;;
27822;SDS011;29019;47.630;8.262;2023-05-20T16:43:16;6.75;;;5.03;;
27822;SDS011;29019;47.630;8.262;2023-05-20T16:47:17;6.40;;;4.70;;
27822;SDS011;29019;47.630;8.262;2023-05-20T16:51:17;7.53;;;5.50;;
27822;SDS011;29019;47.630;8.262;2023-05-20T16:55:18;6.80;;;5.43;;
27822;SDS011;29019;47.630;8.262;2023-05-20T16:59:19;5.25;;;4.75;;
27822;SDS011;29019;47.630;8.262;2023-05-20T17:03:19;5.75;;;4.60;;
27822;SDS011;29019;47.630;8.262;2023-05-20T17:07:20;5.95;;;4.78;;
27822;SDS011;29019;47.630;8.262;2023-05-20T17:11:21;5.65;;;4.50;;
27822;SDS011;29019;47.630;8.262;2023-05-20T17:15:21;5.43;;;4.15;;
27822;SDS011;29019;47.630;8.262;2023-05-20T17:19:22;6.45;;;4.63;;
27822;SDS011;29019;47.630;8.262;2023-05-20T17:23:23;5.85;;;4.53;;
27822;SDS011;29019;47.630;8.262;2023-05-20T17:27:23;6.25;;;4.85;;
27822;SDS011;29019;47.630;8.262;2023-05-20T17:31:24;5.57;;;5.00;;
27822;SDS011;29019;47.630;8.262;2023-05-20T17:35:25;5.00;;;4.22;;
27822;SDS011;29019;47.630;8.262;2023-05-20T17:39:26;5.82;;;4.18;;
27822;SDS011;29019;47.630;8.262;2023-05-20T17:43:27;5.50;;;4.82;;
27822;SDS011;29019;47.630;8.262;2023-05-20T17:47:27;5.55;;;4.40;;
27822;SDS011;29019;47.630;8.262;2023-05-20T17:51:28;5.22;;;4.40;;
27822;SDS011;29019;47.630;8.262;2023-05-20T17:55:30;4.53;;;3.80;;
27822;SDS011;29019;47.630;8.262;2023-05-20T17:59:35;5.55;;;4.32;;
27822;SDS011;29019;47.630;8.262;2023-05-20T18:03:37;6.57;;;3.97;;
27822;SDS011;29019;47.630;8.262;2023-05-20T18:07:39;4.97;;;4.20;;
27822;SDS011;29019;47.630;8.262;2023-05-20T18:11:39;6.97;;;4.78;;
27822;SDS011;29019;47.630;8.262;2023-05-20T18:15:40;4.88;;;3.97;;
27822;SDS011;29019;47.630;8.262;2023-05-20T18:19:41;3.97;;;3.55;;
27822;SDS011;29019;47.630;8.262;2023-05-20T18:23:41;4.47;;;3.88;;
27822;SDS011;29019;47.630;8.262;2023-05-20T18:27:42;5.25;;;4.22;;
27822;SDS011;29019;47.630;8.262;2023-05-20T18:31:43;4.68;;;3.90;;
27822;SDS011;29019;47.630;8.262;2023-05-20T18:35:43;3.97;;;3.53;;
27822;SDS011;29019;47.630;8.262;2023-05-20T18:39:44;4.30;;;3.67;;
27822;SDS011;29019;47.630;8.262;2023-05-20T18:43:45;5.22;;;4.10;;
27822;SDS011;29019;47.630;8.262;2023-05-20T18:47:45;5.10;;;3.80;;
27822;SDS011;29019;47.630;8.262;2023-05-20T18:51:46;5.40;;;4.07;;
27822;SDS011;29019;47.630;8.262;2023-05-20T18:55:47;4.22;;;3.50;;
27822;SDS011;29019;47.630;8.262;2023-05-20T18:59:47;4.72;;;3.95;;
27822;SDS011;29019;47.630;8.262;2023-05-20T19:03:48;4.15;;;3.75;;
27822;SDS011;29019;47.630;8.262;2023-05-20T19:07:48;4.53;;;4.10;;
27822;SDS011;29019;47.630;8.262;2023-05-20T19:11:49;5.43;;;3.53;;
27822;SDS011;29019;47.630;8.262;2023-05-20T19:15:55;5.72;;;3.80;;
27822;SDS011;29019;47.630;8.262;2023-05-20T19:19:58;4.82;;;4.05;;
27822;SDS011;29019;47.630;8.262;2023-05-20T19:23:59;4.82;;;3.78;;
27822;SDS011;29019;47.630;8.262;2023-05-20T19:28:00;4.75;;;3.20;;
27822;SDS011;29019;47.630;8.262;2023-05-20T19:32:00;4.25;;;3.80;;
27822;SDS011;29019;47.630;8.262;2023-05-20T19:36:01;4.20;;;3.58;;
27822;SDS011;29019;47.630;8.262;2023-05-20T19:40:02;3.97;;;3.45;;
27822;SDS011;29019;47.630;8.262;2023-05-20T19:44:03;4.32;;;3.47;;
27822;SDS011;29019;47.630;8.262;2023-05-20T19:52:05;4.07;;;3.30;;
27822;SDS011;29019;47.630;8.262;2023-05-20T19:56:06;4.78;;;4.15;;
27822;SDS011;29019;47.630;8.262;2023-05-20T20:00:07;4.72;;;3.70;;
27822;SDS011;29019;47.630;8.262;2023-05-20T20:04:10;3.50;;;3.20;;
27822;SDS011;29019;47.630;8.262;2023-05-20T20:08:12;4.68;;;3.47;;
27822;SDS011;29019;47.630;8.262;2023-05-20T20:12:12;3.73;;;3.33;;
27822;SDS011;29019;47.630;8.262;2023-05-20T20:16:13;4.40;;;3.40;;
27822;SDS011;29019;47.630;8.262;2023-05-20T20:20:14;4.13;;;3.40;;
27822;SDS011;29019;47.630;8.262;2023-05-20T20:28:16;3.73;;;3.30;;
27822;SDS011;29019;47.630;8.262;2023-05-20T20:32:17;3.83;;;3.30;;
27822;SDS011;29019;47.630;8.262;2023-05-20T20:36:18;4.20;;;3.23;;
27822;SDS011;29019;47.630;8.262;2023-05-20T20:40:19;3.85;;;3.33;;
27822;SDS011;29019;47.630;8.262;2023-05-20T20:44:24;4.25;;;3.17;;
27822;SDS011;29019;47.630;8.262;2023-05-20T20:48:25;3.35;;;2.97;;
27822;SDS011;29019;47.630;8.262;2023-05-20T20:52:26;3.78;;;3.17;;
27822;SDS011;29019;47.630;8.262;2023-05-20T20:56:27;3.95;;;3.40;;
27822;SDS011;29019;47.630;8.262;2023-05-20T21:04:29;5.13;;;3.20;;
27822;SDS011;29019;47.630;8.262;2023-05-20T21:08:30;4.68;;;3.67;;
27822;SDS011;29019;47.630;8.262;2023-05-20T21:12:30;5.85;;;4.00;;
27822;SDS011;29019;47.630;8.262;2023-05-20T21:16:31;5.83;;;3.70;;
27822;SDS011;29019;47.630;8.262;2023-05-20T21:20:32;7.30;;;4.40;;
27822;SDS011;29019;47.630;8.262;2023-05-20T21:24:32;7.10;;;3.60;;
27822;SDS011;29019;47.630;8.262;2023-05-20T21:28:33;11.52;;;3.70;;
27822;SDS011;29019;47.630;8.262;2023-05-20T21:32:33;9.77;;;3.65;;
27822;SDS011;29019;47.630;8.262;2023-05-20T21:36:34;6.50;;;3.60;;
27822;SDS011;29019;47.630;8.262;2023-05-20T21:40:35;4.18;;;3.00;;
27822;SDS011;29019;47.630;8.262;2023-05-20T21:44:35;6.10;;;3.08;;
27822;SDS011;29019;47.630;8.262;2023-05-20T21:48:36;6.82;;;3.80;;
27822;SDS011;29019;47.630;8.262;2023-05-20T21:52:37;5.38;;;3.78;;
27822;SDS011;29019;47.630;8.262;2023-05-20T21:56:40;5.85;;;2.70;;
27822;SDS011;29019;47.630;8.262;2023-05-20T22:00:41;5.05;;;3.22;;
27822;SDS011;29019;47.630;8.262;2023-05-20T22:04:42;5.60;;;3.50;;
27822;SDS011;29019;47.630;8.262;2023-05-20T22:08:42;8.85;;;3.10;;
27822;SDS011;29019;47.630;8.262;2023-05-20T22:12:43;4.65;;;3.25;;
27822;SDS011;29019;47.630;8.262;2023-05-20T22:16:44;10.18;;;3.90;;
27822;SDS011;29019;47.630;8.262;2023-05-20T22:20:45;3.08;;;2.78;;
27822;SDS011;29019;47.630;8.262;2023-05-20T22:24:46;4.07;;;3.33;;
27822;SDS011;29019;47.630;8.262;2023-05-20T22:28:47;5.50;;;3.08;;
27822;SDS011;29019;47.630;8.262;2023-05-20T22:32:47;7.15;;;3.42;;
27822;SDS011;29019;47.630;8.262;2023-05-20T22:36:48;7.05;;;3.28;;
27822;SDS011;29019;47.630;8.262;2023-05-20T22:40:49;5.28;;;2.70;;
27822;SDS011;29019;47.630;8.262;2023-05-20T22:44:49;5.80;;;2.97;;
27822;SDS011;29019;47.630;8.262;2023-05-20T22:48:50;4.07;;;3.40;;
27822;SDS011;29019;47.630;8.262;2023-05-20T22:52:54;4.82;;;3.05;;
27822;SDS011;29019;47.630;8.262;2023-05-20T22:56:55;3.35;;;2.72;;
27822;SDS011;29019;47.630;8.262;2023-05-20T23:00:58;3.97;;;3.13;;
27822;SDS011;29019;47.630;8.262;2023-05-20T23:04:58;3.50;;;3.10;;
27822;SDS011;29019;47.630;8.262;2023-05-20T23:08:59;3.47;;;3.10;;
27822;SDS011;29019;47.630;8.262;2023-05-20T23:12:59;3.93;;;2.73;;
27822;SDS011;29019;47.630;8.262;2023-05-20T23:17:00;3.97;;;3.03;;
27822;SDS011;29019;47.630;8.262;2023-05-20T23:21:01;3.00;;;2.70;;
27822;SDS011;29019;47.630;8.262;2023-05-20T23:25:02;3.25;;;2.80;;
27822;SDS011;29019;47.630;8.262;2023-05-20T23:29:03;4.43;;;2.72;;
27822;SDS011;29019;47.630;8.262;2023-05-20T23:33:04;3.65;;;2.58;;
27822;SDS011;29019;47.630;8.262;2023-05-20T23:37:04;4.17;;;3.10;;
27822;SDS011;29019;47.630;8.262;2023-05-20T23:41:05;12.30;;;2.90;;
27822;SDS011;29019;47.630;8.262;2023-05-20T23:45:06;4.22;;;2.92;;
27822;SDS011;29019;47.630;8.262;2023-05-20T23:49:07;2.40;;;2.20;;
27822;SDS011;29019;47.630;8.262;2023-05-20T23:53:09;4.70;;;2.35;;
27822;SDS011;29019;47.630;8.262;2023-05-20T23:57:09;3.22;;;2.92;;
